sensor_id;sensor_type;location;lat;lon;timestamp;P1;durP1;ratioP1;P2;durP2;ratioP2
71288;SDS011;59068;52.502;9.860;2023-05-10T00:01:22;3.77;;;2.70;;
71288;SDS011;59068;52.502;9.860;2023-05-10T00:03:47;2.73;;;2.33;;
71288;SDS011;59068;52.502;9.860;2023-05-10T00:06:13;4.47;;;2.67;;
71288;SDS011;59068;52.502;9.860;2023-05-10T00:08:38;3.53;;;2.50;;
71288;SDS011;59068;52.502;9.860;2023-05-10T00:11:03;3.33;;;2.70;;
71288;SDS011;59068;52.502;9.860;2023-05-10T00:13:29;3.00;;;2.43;;
71288;SDS011;59068;52.502;9.860;2023-05-10T00:15:54;2.83;;;2.63;;
71288;SDS011;59068;52.502;9.860;2023-05-10T00:18:20;3.00;;;2.50;;
71288;SDS011;59068;52.502;9.860;2023-05-10T00:20:45;3.60;;;2.70;;
71288;SDS011;59068;52.502;9.860;2023-05-10T00:23:11;3.23;;;2.67;;
71288;SDS011;59068;52.502;9.860;2023-05-10T00:25:36;3.97;;;2.77;;
71288;SDS011;59068;52.502;9.860;2023-05-10T00:28:02;5.00;;;2.60;;
71288;SDS011;59068;52.502;9.860;2023-05-10T00:30:27;2.83;;;2.40;;
71288;SDS011;59068;52.502;9.860;2023-05-10T00:32:53;2.80;;;2.57;;
71288;SDS011;59068;52.502;9.860;2023-05-10T00:35:18;4.40;;;2.67;;
71288;SDS011;59068;52.502;9.860;2023-05-10T00:37:44;3.10;;;2.80;;
71288;SDS011;59068;52.502;9.860;2023-05-10T00:40:09;3.00;;;2.70;;
71288;SDS011;59068;52.502;9.860;2023-05-10T00:42:35;4.03;;;3.10;;
71288;SDS011;59068;52.502;9.860;2023-05-10T00:45:00;4.90;;;2.87;;
71288;SDS011;59068;52.502;9.860;2023-05-10T00:47:26;3.40;;;3.10;;
71288;SDS011;59068;52.502;9.860;2023-05-10T00:49:52;3.17;;;2.97;;
71288;SDS011;59068;52.502;9.860;2023-05-10T00:52:17;3.93;;;2.93;;
71288;SDS011;59068;52.502;9.860;2023-05-10T00:54:42;3.80;;;2.93;;
71288;SDS011;59068;52.502;9.860;2023-05-10T00:57:08;4.47;;;2.83;;
71288;SDS011;59068;52.502;9.860;2023-05-10T00:59:34;3.30;;;3.10;;
71288;SDS011;59068;52.502;9.860;2023-05-10T01:01:59;4.43;;;3.20;;
71288;SDS011;59068;52.502;9.860;2023-05-10T01:04:24;3.40;;;3.10;;
71288;SDS011;59068;52.502;9.860;2023-05-10T01:06:53;4.87;;;3.63;;
71288;SDS011;59068;52.502;9.860;2023-05-10T01:09:19;3.17;;;2.97;;
71288;SDS011;59068;52.502;9.860;2023-05-10T01:11:46;4.87;;;3.60;;
71288;SDS011;59068;52.502;9.860;2023-05-10T01:14:11;3.83;;;3.33;;
71288;SDS011;59068;52.502;9.860;2023-05-10T01:16:40;3.93;;;3.27;;
71288;SDS011;59068;52.502;9.860;2023-05-10T01:19:06;6.63;;;4.10;;
71288;SDS011;59068;52.502;9.860;2023-05-10T01:35:47;4.20;;;3.80;;
71288;SDS011;59068;52.502;9.860;2023-05-10T01:38:41;3.87;;;3.57;;
71288;SDS011;59068;52.502;9.860;2023-05-10T01:41:13;4.97;;;3.60;;
71288;SDS011;59068;52.502;9.860;2023-05-10T01:44:24;3.63;;;3.33;;
71288;SDS011;59068;52.502;9.860;2023-05-10T01:46:36;4.03;;;3.60;;
71288;SDS011;59068;52.502;9.860;2023-05-10T01:49:03;4.10;;;3.70;;
71288;SDS011;59068;52.502;9.860;2023-05-10T01:51:47;4.57;;;3.83;;
71288;SDS011;59068;52.502;9.860;2023-05-10T01:54:14;4.73;;;4.10;;
71288;SDS011;59068;52.502;9.860;2023-05-10T01:56:42;4.10;;;3.53;;
71288;SDS011;59068;52.502;9.860;2023-05-10T01:59:11;4.40;;;4.00;;
71288;SDS011;59068;52.502;9.860;2023-05-10T02:01:38;4.70;;;4.30;;
71288;SDS011;59068;52.502;9.860;2023-05-10T02:04:06;4.23;;;3.83;;
71288;SDS011;59068;52.502;9.860;2023-05-10T02:06:32;4.63;;;3.90;;
71288;SDS011;59068;52.502;9.860;2023-05-10T02:08:58;4.77;;;3.60;;
71288;SDS011;59068;52.502;9.860;2023-05-10T02:11:26;4.67;;;3.70;;
71288;SDS011;59068;52.502;9.860;2023-05-10T02:13:52;4.90;;;4.03;;
71288;SDS011;59068;52.502;9.860;2023-05-10T02:16:18;4.87;;;4.37;;
71288;SDS011;59068;52.502;9.860;2023-05-10T02:18:47;4.37;;;3.97;;
71288;SDS011;59068;52.502;9.860;2023-05-10T02:21:13;5.50;;;4.57;;
71288;SDS011;59068;52.502;9.860;2023-05-10T02:23:40;4.83;;;4.37;;
71288;SDS011;59068;52.502;9.860;2023-05-10T02:26:06;4.73;;;4.27;;
71288;SDS011;59068;52.502;9.860;2023-05-10T02:28:31;4.97;;;4.47;;
71288;SDS011;59068;52.502;9.860;2023-05-10T02:30:57;4.90;;;4.47;;
71288;SDS011;59068;52.502;9.860;2023-05-10T02:33:23;5.20;;;4.70;;
71288;SDS011;59068;52.502;9.860;2023-05-10T02:35:50;4.90;;;4.50;;
71288;SDS011;59068;52.502;9.860;2023-05-10T02:38:15;5.63;;;4.50;;
71288;SDS011;59068;52.502;9.860;2023-05-10T02:40:41;4.40;;;4.00;;
71288;SDS011;59068;52.502;9.860;2023-05-10T02:43:07;5.20;;;4.70;;
71288;SDS011;59068;52.502;9.860;2023-05-10T02:45:34;5.73;;;4.93;;
71288;SDS011;59068;52.502;9.860;2023-05-10T02:48:00;6.97;;;4.83;;
71288;SDS011;59068;52.502;9.860;2023-05-10T02:50:27;4.90;;;4.13;;
71288;SDS011;59068;52.502;9.860;2023-05-10T02:52:54;5.47;;;4.27;;
71288;SDS011;59068;52.502;9.860;2023-05-10T02:55:22;4.87;;;4.40;;
71288;SDS011;59068;52.502;9.860;2023-05-10T02:57:51;5.00;;;4.57;;
71288;SDS011;59068;52.502;9.860;2023-05-10T03:00:19;5.50;;;4.90;;
71288;SDS011;59068;52.502;9.860;2023-05-10T03:02:45;4.23;;;3.90;;
71288;SDS011;59068;52.502;9.860;2023-05-10T03:05:11;4.80;;;4.40;;
71288;SDS011;59068;52.502;9.860;2023-05-10T03:07:36;4.93;;;4.53;;
71288;SDS011;59068;52.502;9.860;2023-05-10T03:10:01;4.93;;;4.30;;
71288;SDS011;59068;52.502;9.860;2023-05-10T03:15:22;4.27;;;3.87;;
71288;SDS011;59068;52.502;9.860;2023-05-10T03:18:01;6.47;;;4.27;;
71288;SDS011;59068;52.502;9.860;2023-05-10T03:20:35;4.50;;;4.10;;
71288;SDS011;59068;52.502;9.860;2023-05-10T03:25:42;4.73;;;4.33;;
71288;SDS011;59068;52.502;9.860;2023-05-10T03:28:08;5.27;;;4.50;;
71288;SDS011;59068;52.502;9.860;2023-05-10T03:30:35;5.20;;;4.70;;
71288;SDS011;59068;52.502;9.860;2023-05-10T03:33:05;4.67;;;4.17;;
71288;SDS011;59068;52.502;9.860;2023-05-10T03:35:31;5.20;;;4.70;;
71288;SDS011;59068;52.502;9.860;2023-05-10T03:37:56;5.13;;;4.67;;
71288;SDS011;59068;52.502;9.860;2023-05-10T03:40:22;5.40;;;4.50;;
71288;SDS011;59068;52.502;9.860;2023-05-10T03:42:48;4.80;;;4.40;;
71288;SDS011;59068;52.502;9.860;2023-05-10T03:45:13;4.90;;;4.40;;
71288;SDS011;59068;52.502;9.860;2023-05-10T03:47:38;5.57;;;4.70;;
71288;SDS011;59068;52.502;9.860;2023-05-10T03:50:04;4.97;;;4.50;;
71288;SDS011;59068;52.502;9.860;2023-05-10T03:52:30;4.83;;;4.43;;
71288;SDS011;59068;52.502;9.860;2023-05-10T03:54:55;5.03;;;4.60;;
71288;SDS011;59068;52.502;9.860;2023-05-10T03:57:21;5.93;;;5.10;;
71288;SDS011;59068;52.502;9.860;2023-05-10T03:59:46;5.07;;;4.63;;
71288;SDS011;59068;52.502;9.860;2023-05-10T04:02:11;5.07;;;4.57;;
71288;SDS011;59068;52.502;9.860;2023-05-10T04:04:37;6.37;;;4.93;;
71288;SDS011;59068;52.502;9.860;2023-05-10T04:07:02;4.90;;;4.50;;
71288;SDS011;59068;52.502;9.860;2023-05-10T04:09:28;4.73;;;4.33;;
71288;SDS011;59068;52.502;9.860;2023-05-10T04:11:53;4.80;;;4.30;;
71288;SDS011;59068;52.502;9.860;2023-05-10T04:14:18;4.67;;;4.30;;
71288;SDS011;59068;52.502;9.860;2023-05-10T04:16:44;5.47;;;4.83;;
71288;SDS011;59068;52.502;9.860;2023-05-10T04:19:09;4.03;;;3.13;;
71288;SDS011;59068;52.502;9.860;2023-05-10T04:21:35;8.13;;;3.50;;
71288;SDS011;59068;52.502;9.860;2023-05-10T04:24:02;6.97;;;3.80;;
71288;SDS011;59068;52.502;9.860;2023-05-10T04:26:27;6.70;;;3.73;;
71288;SDS011;59068;52.502;9.860;2023-05-10T04:28:53;4.93;;;3.43;;
71288;SDS011;59068;52.502;9.860;2023-05-10T04:31:18;4.53;;;3.70;;
71288;SDS011;59068;52.502;9.860;2023-05-10T04:33:43;5.47;;;3.83;;
71288;SDS011;59068;52.502;9.860;2023-05-10T04:36:09;4.60;;;3.73;;
71288;SDS011;59068;52.502;9.860;2023-05-10T04:38:35;4.50;;;3.70;;
71288;SDS011;59068;52.502;9.860;2023-05-10T04:41:04;3.57;;;3.23;;
71288;SDS011;59068;52.502;9.860;2023-05-10T04:43:31;3.87;;;3.50;;
71288;SDS011;59068;52.502;9.860;2023-05-10T04:45:56;4.43;;;3.63;;
71288;SDS011;59068;52.502;9.860;2023-05-10T04:48:23;4.27;;;3.87;;
71288;SDS011;59068;52.502;9.860;2023-05-10T04:50:48;6.67;;;4.00;;
71288;SDS011;59068;52.502;9.860;2023-05-10T04:53:13;6.07;;;4.10;;
71288;SDS011;59068;52.502;9.860;2023-05-10T04:55:39;5.63;;;4.53;;
71288;SDS011;59068;52.502;9.860;2023-05-10T04:58:04;4.83;;;4.43;;
71288;SDS011;59068;52.502;9.860;2023-05-10T05:00:29;5.07;;;4.40;;
71288;SDS011;59068;52.502;9.860;2023-05-10T05:02:55;5.00;;;4.60;;
71288;SDS011;59068;52.502;9.860;2023-05-10T05:05:20;5.20;;;4.80;;
71288;SDS011;59068;52.502;9.860;2023-05-10T05:07:46;5.33;;;4.87;;
71288;SDS011;59068;52.502;9.860;2023-05-10T05:10:11;5.53;;;4.80;;
71288;SDS011;59068;52.502;9.860;2023-05-10T05:12:37;5.80;;;5.30;;
71288;SDS011;59068;52.502;9.860;2023-05-10T05:15:04;6.67;;;5.33;;
71288;SDS011;59068;52.502;9.860;2023-05-10T05:17:29;5.53;;;5.10;;
71288;SDS011;59068;52.502;9.860;2023-05-10T05:19:55;5.87;;;5.40;;
71288;SDS011;59068;52.502;9.860;2023-05-10T05:22:20;6.13;;;5.50;;
71288;SDS011;59068;52.502;9.860;2023-05-10T05:24:52;6.27;;;5.67;;
71288;SDS011;59068;52.502;9.860;2023-05-10T05:27:17;6.23;;;5.63;;
71288;SDS011;59068;52.502;9.860;2023-05-10T05:29:43;6.17;;;5.57;;
71288;SDS011;59068;52.502;9.860;2023-05-10T05:32:08;6.07;;;5.47;;
71288;SDS011;59068;52.502;9.860;2023-05-10T05:34:34;6.47;;;5.80;;
71288;SDS011;59068;52.502;9.860;2023-05-10T05:36:59;6.20;;;5.60;;
71288;SDS011;59068;52.502;9.860;2023-05-10T05:39:24;6.10;;;5.47;;
71288;SDS011;59068;52.502;9.860;2023-05-10T05:41:50;6.27;;;5.67;;
71288;SDS011;59068;52.502;9.860;2023-05-10T05:44:15;6.77;;;6.17;;
71288;SDS011;59068;52.502;9.860;2023-05-10T05:46:40;6.57;;;5.97;;
71288;SDS011;59068;52.502;9.860;2023-05-10T05:49:06;5.93;;;5.43;;
71288;SDS011;59068;52.502;9.860;2023-05-10T05:51:31;6.37;;;5.83;;
71288;SDS011;59068;52.502;9.860;2023-05-10T05:53:57;7.00;;;6.40;;
71288;SDS011;59068;52.502;9.860;2023-05-10T05:56:25;7.23;;;6.50;;
71288;SDS011;59068;52.502;9.860;2023-05-10T05:58:50;7.53;;;6.57;;
71288;SDS011;59068;52.502;9.860;2023-05-10T06:01:16;6.93;;;6.23;;
71288;SDS011;59068;52.502;9.860;2023-05-10T06:03:42;6.77;;;6.23;;
71288;SDS011;59068;52.502;9.860;2023-05-10T06:06:08;6.90;;;6.20;;
71288;SDS011;59068;52.502;9.860;2023-05-10T06:08:33;6.83;;;6.23;;
71288;SDS011;59068;52.502;9.860;2023-05-10T06:10:59;7.73;;;7.07;;
71288;SDS011;59068;52.502;9.860;2023-05-10T06:13:25;7.90;;;7.20;;
71288;SDS011;59068;52.502;9.860;2023-05-10T06:15:53;7.33;;;6.63;;
71288;SDS011;59068;52.502;9.860;2023-05-10T06:18:19;8.50;;;7.00;;
71288;SDS011;59068;52.502;9.860;2023-05-10T06:20:44;7.37;;;6.67;;
71288;SDS011;59068;52.502;9.860;2023-05-10T06:23:09;7.60;;;6.90;;
71288;SDS011;59068;52.502;9.860;2023-05-10T06:25:35;7.50;;;6.90;;
71288;SDS011;59068;52.502;9.860;2023-05-10T06:28:00;8.77;;;7.80;;
71288;SDS011;59068;52.502;9.860;2023-05-10T06:30:26;7.43;;;6.73;;
71288;SDS011;59068;52.502;9.860;2023-05-10T06:32:53;8.47;;;7.67;;
71288;SDS011;59068;52.502;9.860;2023-05-10T06:35:18;8.50;;;7.80;;
71288;SDS011;59068;52.502;9.860;2023-05-10T06:37:44;7.90;;;7.20;;
71288;SDS011;59068;52.502;9.860;2023-05-10T06:40:09;8.00;;;7.27;;
71288;SDS011;59068;52.502;9.860;2023-05-10T06:42:36;8.73;;;8.03;;
71288;SDS011;59068;52.502;9.860;2023-05-10T06:45:01;8.20;;;7.50;;
71288;SDS011;59068;52.502;9.860;2023-05-10T06:47:29;8.10;;;7.33;;
71288;SDS011;59068;52.502;9.860;2023-05-10T06:49:55;8.67;;;7.87;;
71288;SDS011;59068;52.502;9.860;2023-05-10T06:52:22;8.40;;;7.67;;
71288;SDS011;59068;52.502;9.860;2023-05-10T06:54:48;8.37;;;7.67;;
71288;SDS011;59068;52.502;9.860;2023-05-10T06:57:15;8.27;;;7.47;;
71288;SDS011;59068;52.502;9.860;2023-05-10T06:59:42;8.30;;;7.43;;
71288;SDS011;59068;52.502;9.860;2023-05-10T07:02:09;8.90;;;8.00;;
71288;SDS011;59068;52.502;9.860;2023-05-10T07:04:35;8.73;;;7.93;;
71288;SDS011;59068;52.502;9.860;2023-05-10T07:07:01;9.40;;;8.43;;
71288;SDS011;59068;52.502;9.860;2023-05-10T07:09:26;9.23;;;8.10;;
71288;SDS011;59068;52.502;9.860;2023-05-10T07:11:51;8.83;;;8.13;;
71288;SDS011;59068;52.502;9.860;2023-05-10T07:14:18;8.93;;;8.03;;
71288;SDS011;59068;52.502;9.860;2023-05-10T07:16:45;9.23;;;8.43;;
71288;SDS011;59068;52.502;9.860;2023-05-10T07:19:12;8.90;;;8.10;;
71288;SDS011;59068;52.502;9.860;2023-05-10T07:21:37;10.00;;;9.00;;
71288;SDS011;59068;52.502;9.860;2023-05-10T07:24:06;8.70;;;8.00;;
71288;SDS011;59068;52.502;9.860;2023-05-10T07:26:32;9.57;;;8.67;;
71288;SDS011;59068;52.502;9.860;2023-05-10T07:28:58;9.93;;;9.03;;
71288;SDS011;59068;52.502;9.860;2023-05-10T07:31:25;9.47;;;8.67;;
71288;SDS011;59068;52.502;9.860;2023-05-10T07:33:50;8.27;;;7.47;;
71288;SDS011;59068;52.502;9.860;2023-05-10T07:36:18;9.40;;;8.37;;
71288;SDS011;59068;52.502;9.860;2023-05-10T07:38:43;9.90;;;8.90;;
71288;SDS011;59068;52.502;9.860;2023-05-10T07:41:11;10.33;;;9.33;;
71288;SDS011;59068;52.502;9.860;2023-05-10T07:43:38;10.30;;;9.27;;
71288;SDS011;59068;52.502;9.860;2023-05-10T07:46:03;9.10;;;8.20;;
71288;SDS011;59068;52.502;9.860;2023-05-10T07:48:30;10.53;;;9.63;;
71288;SDS011;59068;52.502;9.860;2023-05-10T07:50:56;10.17;;;9.23;;
71288;SDS011;59068;52.502;9.860;2023-05-10T07:53:22;10.37;;;9.37;;
71288;SDS011;59068;52.502;9.860;2023-05-10T07:55:51;11.13;;;9.80;;
71288;SDS011;59068;52.502;9.860;2023-05-10T07:58:18;10.43;;;9.33;;
71288;SDS011;59068;52.502;9.860;2023-05-10T08:00:45;10.27;;;9.27;;
71288;SDS011;59068;52.502;9.860;2023-05-10T08:03:10;10.20;;;9.30;;
71288;SDS011;59068;52.502;9.860;2023-05-10T08:05:37;10.67;;;9.07;;
71288;SDS011;59068;52.502;9.860;2023-05-10T08:08:03;9.33;;;8.53;;
71288;SDS011;59068;52.502;9.860;2023-05-10T08:10:31;8.70;;;7.87;;
71288;SDS011;59068;52.502;9.860;2023-05-10T08:12:59;10.00;;;9.10;;
71288;SDS011;59068;52.502;9.860;2023-05-10T08:15:25;9.47;;;8.57;;
71288;SDS011;59068;52.502;9.860;2023-05-10T08:17:54;9.30;;;8.50;;
71288;SDS011;59068;52.502;9.860;2023-05-10T08:20:20;9.47;;;8.57;;
71288;SDS011;59068;52.502;9.860;2023-05-10T08:22:46;9.20;;;8.30;;
71288;SDS011;59068;52.502;9.860;2023-05-10T08:25:12;12.27;;;9.10;;
71288;SDS011;59068;52.502;9.860;2023-05-10T08:27:39;9.70;;;8.43;;
71288;SDS011;59068;52.502;9.860;2023-05-10T08:30:06;9.37;;;8.40;;
71288;SDS011;59068;52.502;9.860;2023-05-10T08:32:33;8.60;;;7.83;;
71288;SDS011;59068;52.502;9.860;2023-05-10T08:34:59;9.30;;;8.20;;
71288;SDS011;59068;52.502;9.860;2023-05-10T08:37:29;8.13;;;7.33;;
71288;SDS011;59068;52.502;9.860;2023-05-10T08:39:54;8.87;;;8.17;;
71288;SDS011;59068;52.502;9.860;2023-05-10T08:42:21;7.97;;;7.17;;
71288;SDS011;59068;52.502;9.860;2023-05-10T08:44:49;7.50;;;6.80;;
71288;SDS011;59068;52.502;9.860;2023-05-10T08:47:16;8.47;;;7.77;;
71288;SDS011;59068;52.502;9.860;2023-05-10T08:49:44;7.10;;;6.50;;
71288;SDS011;59068;52.502;9.860;2023-05-10T08:52:21;7.30;;;6.60;;
71288;SDS011;59068;52.502;9.860;2023-05-10T08:54:48;6.67;;;6.07;;
71288;SDS011;59068;52.502;9.860;2023-05-10T08:57:15;7.10;;;6.50;;
71288;SDS011;59068;52.502;9.860;2023-05-10T08:59:40;8.23;;;7.20;;
71288;SDS011;59068;52.502;9.860;2023-05-10T09:02:06;6.60;;;5.90;;
71288;SDS011;59068;52.502;9.860;2023-05-10T09:04:31;6.27;;;5.67;;
71288;SDS011;59068;52.502;9.860;2023-05-10T09:06:59;5.93;;;5.33;;
71288;SDS011;59068;52.502;9.860;2023-05-10T09:09:26;5.80;;;5.40;;
71288;SDS011;59068;52.502;9.860;2023-05-10T09:11:53;6.17;;;5.57;;
71288;SDS011;59068;52.502;9.860;2023-05-10T09:14:19;5.70;;;5.20;;
71288;SDS011;59068;52.502;9.860;2023-05-10T09:16:46;6.33;;;5.17;;
71288;SDS011;59068;52.502;9.860;2023-05-10T09:19:11;5.23;;;4.77;;
71288;SDS011;59068;52.502;9.860;2023-05-10T09:21:38;5.23;;;4.83;;
71288;SDS011;59068;52.502;9.860;2023-05-10T09:24:04;4.93;;;4.47;;
71288;SDS011;59068;52.502;9.860;2023-05-10T09:26:35;5.20;;;4.60;;
71288;SDS011;59068;52.502;9.860;2023-05-10T09:29:02;3.30;;;3.10;;
71288;SDS011;59068;52.502;9.860;2023-05-10T09:34:20;3.50;;;3.20;;
71288;SDS011;59068;52.502;9.860;2023-05-10T09:39:39;2.80;;;2.60;;
71288;SDS011;59068;52.502;9.860;2023-05-10T09:42:08;2.80;;;2.60;;
71288;SDS011;59068;52.502;9.860;2023-05-10T09:44:35;3.30;;;3.10;;
71288;SDS011;59068;52.502;9.860;2023-05-10T09:47:01;3.10;;;2.90;;
71288;SDS011;59068;52.502;9.860;2023-05-10T09:49:29;3.10;;;2.80;;
71288;SDS011;59068;52.502;9.860;2023-05-10T09:54:42;3.53;;;3.33;;
71288;SDS011;59068;52.502;9.860;2023-05-10T09:57:18;6.33;;;3.77;;
71288;SDS011;59068;52.502;9.860;2023-05-10T09:59:47;3.50;;;3.20;;
71288;SDS011;59068;52.502;9.860;2023-05-10T10:02:14;3.43;;;3.13;;
71288;SDS011;59068;52.502;9.860;2023-05-10T10:04:41;3.33;;;3.13;;
71288;SDS011;59068;52.502;9.860;2023-05-10T10:07:09;6.73;;;3.97;;
71288;SDS011;59068;52.502;9.860;2023-05-10T10:09:36;4.90;;;3.97;;
71288;SDS011;59068;52.502;9.860;2023-05-10T10:12:03;3.97;;;3.67;;
71288;SDS011;59068;52.502;9.860;2023-05-10T10:14:29;5.07;;;4.23;;
71288;SDS011;59068;52.502;9.860;2023-05-10T10:16:56;3.77;;;3.47;;
71288;SDS011;59068;52.502;9.860;2023-05-10T10:19:23;4.67;;;4.27;;
71288;SDS011;59068;52.502;9.860;2023-05-10T10:21:50;4.50;;;4.10;;
71288;SDS011;59068;52.502;9.860;2023-05-10T10:24:17;3.97;;;3.67;;
71288;SDS011;59068;52.502;9.860;2023-05-10T10:26:44;4.17;;;3.80;;
71288;SDS011;59068;52.502;9.860;2023-05-10T10:34:32;3.80;;;3.50;;
71288;SDS011;59068;52.502;9.860;2023-05-10T10:37:03;4.03;;;3.73;;
71288;SDS011;59068;52.502;9.860;2023-05-10T10:39:29;4.00;;;3.63;;
71288;SDS011;59068;52.502;9.860;2023-05-10T10:41:57;4.00;;;3.70;;
71288;SDS011;59068;52.502;9.860;2023-05-10T10:49:50;4.47;;;4.07;;
71288;SDS011;59068;52.502;9.860;2023-05-10T10:55:19;6.13;;;4.63;;
71288;SDS011;59068;52.502;9.860;2023-05-10T11:00:38;4.40;;;4.00;;
71288;SDS011;59068;52.502;9.860;2023-05-10T11:03:08;5.47;;;4.97;;
71288;SDS011;59068;52.502;9.860;2023-05-10T11:08:26;5.40;;;5.00;;
71288;SDS011;59068;52.502;9.860;2023-05-10T11:13:44;6.67;;;5.90;;
71288;SDS011;59068;52.502;9.860;2023-05-10T11:21:34;5.67;;;5.17;;
71288;SDS011;59068;52.502;9.860;2023-05-10T11:24:28;5.87;;;5.37;;
71288;SDS011;59068;52.502;9.860;2023-05-10T11:26:54;5.93;;;5.43;;
71288;SDS011;59068;52.502;9.860;2023-05-10T11:29:20;5.97;;;5.47;;
71288;SDS011;59068;52.502;9.860;2023-05-10T11:31:48;5.97;;;5.37;;
71288;SDS011;59068;52.502;9.860;2023-05-10T11:37:00;5.87;;;5.47;;
71288;SDS011;59068;52.502;9.860;2023-05-10T11:39:27;5.87;;;5.40;;
71288;SDS011;59068;52.502;9.860;2023-05-10T11:41:56;6.47;;;5.93;;
71288;SDS011;59068;52.502;9.860;2023-05-10T11:44:21;6.10;;;5.50;;
71288;SDS011;59068;52.502;9.860;2023-05-10T11:46:50;6.07;;;5.63;;
71288;SDS011;59068;52.502;9.860;2023-05-10T11:49:15;5.53;;;5.03;;
71288;SDS011;59068;52.502;9.860;2023-05-10T11:51:42;5.53;;;5.13;;
71288;SDS011;59068;52.502;9.860;2023-05-10T11:54:10;6.00;;;5.50;;
71288;SDS011;59068;52.502;9.860;2023-05-10T11:56:38;5.90;;;5.37;;
71288;SDS011;59068;52.502;9.860;2023-05-10T11:59:04;6.20;;;5.70;;
71288;SDS011;59068;52.502;9.860;2023-05-10T12:01:31;5.70;;;5.20;;
71288;SDS011;59068;52.502;9.860;2023-05-10T12:03:57;6.17;;;5.57;;
71288;SDS011;59068;52.502;9.860;2023-05-10T12:06:29;6.03;;;5.53;;
71288;SDS011;59068;52.502;9.860;2023-05-10T12:08:56;5.40;;;4.90;;
71288;SDS011;59068;52.502;9.860;2023-05-10T12:11:24;5.37;;;4.87;;
71288;SDS011;59068;52.502;9.860;2023-05-10T12:13:51;5.30;;;4.87;;
71288;SDS011;59068;52.502;9.860;2023-05-10T12:16:25;6.13;;;5.43;;
71288;SDS011;59068;52.502;9.860;2023-05-10T12:18:53;5.60;;;5.20;;
71288;SDS011;59068;52.502;9.860;2023-05-10T12:21:21;4.60;;;4.30;;
71288;SDS011;59068;52.502;9.860;2023-05-10T12:23:49;5.60;;;5.10;;
71288;SDS011;59068;52.502;9.860;2023-05-10T12:26:15;4.73;;;4.33;;
71288;SDS011;59068;52.502;9.860;2023-05-10T12:28:41;5.10;;;4.60;;
71288;SDS011;59068;52.502;9.860;2023-05-10T12:31:07;5.07;;;4.67;;
71288;SDS011;59068;52.502;9.860;2023-05-10T12:33:38;4.70;;;4.30;;
71288;SDS011;59068;52.502;9.860;2023-05-10T12:36:06;4.60;;;4.20;;
71288;SDS011;59068;52.502;9.860;2023-05-10T12:38:33;4.73;;;4.23;;
71288;SDS011;59068;52.502;9.860;2023-05-10T12:41:01;4.30;;;3.90;;
71288;SDS011;59068;52.502;9.860;2023-05-10T12:43:29;4.37;;;3.97;;
71288;SDS011;59068;52.502;9.860;2023-05-10T12:45:55;4.73;;;4.20;;
71288;SDS011;59068;52.502;9.860;2023-05-10T12:48:21;4.17;;;3.80;;
71288;SDS011;59068;52.502;9.860;2023-05-10T12:50:48;3.73;;;3.33;;
71288;SDS011;59068;52.502;9.860;2023-05-10T12:53:15;4.43;;;4.03;;
71288;SDS011;59068;52.502;9.860;2023-05-10T12:55:43;4.43;;;3.87;;
71288;SDS011;59068;52.502;9.860;2023-05-10T12:58:10;4.10;;;3.73;;
71288;SDS011;59068;52.502;9.860;2023-05-10T13:00:36;4.13;;;3.73;;
71288;SDS011;59068;52.502;9.860;2023-05-10T13:03:04;3.83;;;3.47;;
71288;SDS011;59068;52.502;9.860;2023-05-10T13:05:31;5.67;;;3.77;;
71288;SDS011;59068;52.502;9.860;2023-05-10T13:08:01;4.53;;;4.23;;
71288;SDS011;59068;52.502;9.860;2023-05-10T13:10:31;4.53;;;4.13;;
71288;SDS011;59068;52.502;9.860;2023-05-10T13:13:05;3.70;;;3.40;;
71288;SDS011;59068;52.502;9.860;2023-05-10T13:15:34;4.63;;;3.90;;
71288;SDS011;59068;52.502;9.860;2023-05-10T13:18:00;5.30;;;4.10;;
71288;SDS011;59068;52.502;9.860;2023-05-10T13:20:27;3.77;;;3.47;;
71288;SDS011;59068;52.502;9.860;2023-05-10T13:22:53;3.80;;;3.50;;
71288;SDS011;59068;52.502;9.860;2023-05-10T13:25:19;3.77;;;3.37;;
71288;SDS011;59068;52.502;9.860;2023-05-10T13:27:45;4.10;;;3.73;;
71288;SDS011;59068;52.502;9.860;2023-05-10T13:30:11;4.83;;;3.63;;
71288;SDS011;59068;52.502;9.860;2023-05-10T13:32:38;3.83;;;3.03;;
71288;SDS011;59068;52.502;9.860;2023-05-10T13:35:03;5.03;;;3.70;;
71288;SDS011;59068;52.502;9.860;2023-05-10T13:37:31;3.87;;;3.43;;
71288;SDS011;59068;52.502;9.860;2023-05-10T13:40:02;4.43;;;3.93;;
71288;SDS011;59068;52.502;9.860;2023-05-10T13:42:30;4.90;;;3.73;;
71288;SDS011;59068;52.502;9.860;2023-05-10T13:44:59;6.13;;;4.30;;
71288;SDS011;59068;52.502;9.860;2023-05-10T13:47:27;4.47;;;4.07;;
71288;SDS011;59068;52.502;9.860;2023-05-10T13:49:54;4.63;;;4.10;;
71288;SDS011;59068;52.502;9.860;2023-05-10T13:52:21;5.37;;;4.40;;
71288;SDS011;59068;52.502;9.860;2023-05-10T13:54:47;5.10;;;4.47;;
71288;SDS011;59068;52.502;9.860;2023-05-10T13:57:14;5.23;;;4.77;;
71288;SDS011;59068;52.502;9.860;2023-05-10T13:59:42;6.93;;;5.23;;
71288;SDS011;59068;52.502;9.860;2023-05-10T14:02:08;8.33;;;5.57;;
71288;SDS011;59068;52.502;9.860;2023-05-10T14:04:39;7.43;;;5.67;;
71288;SDS011;59068;52.502;9.860;2023-05-10T14:07:05;7.17;;;6.13;;
71288;SDS011;59068;52.502;9.860;2023-05-10T14:09:31;7.00;;;6.30;;
71288;SDS011;59068;52.502;9.860;2023-05-10T14:11:58;8.70;;;6.47;;
71288;SDS011;59068;52.502;9.860;2023-05-10T14:14:23;8.97;;;6.90;;
71288;SDS011;59068;52.502;9.860;2023-05-10T14:16:51;8.20;;;7.27;;
71288;SDS011;59068;52.502;9.860;2023-05-10T14:19:16;9.40;;;7.77;;
71288;SDS011;59068;52.502;9.860;2023-05-10T14:21:44;8.60;;;7.33;;
71288;SDS011;59068;52.502;9.860;2023-05-10T14:24:11;9.30;;;7.57;;
71288;SDS011;59068;52.502;9.860;2023-05-10T14:26:37;10.70;;;8.07;;
71288;SDS011;59068;52.502;9.860;2023-05-10T14:29:02;8.47;;;7.17;;
71288;SDS011;59068;52.502;9.860;2023-05-10T14:31:28;9.23;;;8.33;;
71288;SDS011;59068;52.502;9.860;2023-05-10T14:33:55;9.63;;;8.63;;
71288;SDS011;59068;52.502;9.860;2023-05-10T14:36:22;10.00;;;8.90;;
71288;SDS011;59068;52.502;9.860;2023-05-10T14:38:47;11.07;;;9.00;;
71288;SDS011;59068;52.502;9.860;2023-05-10T14:41:15;10.13;;;7.77;;
71288;SDS011;59068;52.502;9.860;2023-05-10T14:43:42;9.37;;;8.27;;
71288;SDS011;59068;52.502;9.860;2023-05-10T14:46:09;8.90;;;8.10;;
71288;SDS011;59068;52.502;9.860;2023-05-10T14:48:36;9.80;;;8.30;;
71288;SDS011;59068;52.502;9.860;2023-05-10T14:51:03;10.63;;;8.87;;
71288;SDS011;59068;52.502;9.860;2023-05-10T14:53:30;9.20;;;8.20;;
71288;SDS011;59068;52.502;9.860;2023-05-10T14:55:56;10.03;;;8.47;;
71288;SDS011;59068;52.502;9.860;2023-05-10T14:58:22;10.10;;;9.00;;
71288;SDS011;59068;52.502;9.860;2023-05-10T15:00:47;9.20;;;8.20;;
71288;SDS011;59068;52.502;9.860;2023-05-10T15:03:13;10.23;;;8.93;;
71288;SDS011;59068;52.502;9.860;2023-05-10T15:05:39;9.20;;;8.30;;
71288;SDS011;59068;52.502;9.860;2023-05-10T15:08:05;10.40;;;9.30;;
71288;SDS011;59068;52.502;9.860;2023-05-10T15:10:32;10.47;;;8.47;;
71288;SDS011;59068;52.502;9.860;2023-05-10T15:12:59;10.97;;;8.80;;
71288;SDS011;59068;52.502;9.860;2023-05-10T15:15:26;9.97;;;9.00;;
71288;SDS011;59068;52.502;9.860;2023-05-10T15:17:52;10.27;;;8.87;;
71288;SDS011;59068;52.502;9.860;2023-05-10T15:20:17;10.80;;;9.77;;
71288;SDS011;59068;52.502;9.860;2023-05-10T15:22:44;11.47;;;9.83;;
71288;SDS011;59068;52.502;9.860;2023-05-10T15:25:09;12.20;;;10.00;;
71288;SDS011;59068;52.502;9.860;2023-05-10T15:27:37;10.80;;;9.70;;
71288;SDS011;59068;52.502;9.860;2023-05-10T15:30:03;10.97;;;9.87;;
71288;SDS011;59068;52.502;9.860;2023-05-10T15:32:30;10.73;;;9.63;;
71288;SDS011;59068;52.502;9.860;2023-05-10T15:34:56;10.17;;;9.17;;
71288;SDS011;59068;52.502;9.860;2023-05-10T15:37:25;9.87;;;8.87;;
71288;SDS011;59068;52.502;9.860;2023-05-10T15:39:53;9.90;;;8.63;;
71288;SDS011;59068;52.502;9.860;2023-05-10T15:42:19;10.37;;;9.10;;